Time;durP1;ratioP1;P1;durP2;ratioP2;P2;SDS_P1;SDS_P2;PMS_P1;PMS_P2;Temp;Humidity;BMP_temperature;BMP_pressure;BME280_temperature;BME280_humidity;BME280_pressure;Samples;Min_cycle;Max_cycle;Signal;HPM_P1;HPM_P2
2023/12/03 00:01:36;;;;;;;16.10;8.17;;;;;;;;;;6168463;23;20219;-89
2023/12/03 00:04:43;;;;;;;15.93;7.23;;;;;;;;;;6168330;23;20193;-91
2023/12/03 00:07:48;;;;;;;15.60;7.40;;;;;;;;;;6167530;23;20172;-88
2023/12/03 00:10:54;;;;;;;14.67;7.37;;;;;;;;;;6167419;23;20171;-90
2023/12/03 00:13:59;;;;;;;15.77;8.13;;;;;;;;;;6169555;23;20164;-90
2023/12/03 00:17:04;;;;;;;13.90;7.40;;;;;;;;;;6169762;23;20233;-90
2023/12/03 00:20:11;;;;;;;14.20;7.37;;;;;;;;;;6167300;23;20152;-89
2023/12/03 00:23:16;;;;;;;16.27;8.30;;;;;;;;;;6168736;23;20597;-90
2023/12/03 00:26:21;;;;;;;13.33;6.90;;;;;;;;;;6167541;23;20167;-88
2023/12/03 00:29:27;;;;;;;14.90;7.37;;;;;;;;;;6167626;23;20156;-89
2023/12/03 00:32:32;;;;;;;13.90;6.40;;;;;;;;;;6165992;23;20172;-90
2023/12/03 00:35:39;;;;;;;14.00;6.80;;;;;;;;;;6166712;23;20169;-89
2023/12/03 00:38:44;;;;;;;13.83;6.60;;;;;;;;;;6163973;23;20168;-89
2023/12/03 00:41:49;;;;;;;15.13;6.90;;;;;;;;;;6164716;23;20253;-89
2023/12/03 00:44:54;;;;;;;14.60;7.13;;;;;;;;;;6166519;23;20172;-89
2023/12/03 00:48:01;;;;;;;16.07;6.70;;;;;;;;;;6167841;23;20220;-91
2023/12/03 00:51:08;;;;;;;12.83;6.43;;;;;;;;;;6166411;23;20172;-90
2023/12/03 00:54:14;;;;;;;11.03;6.40;;;;;;;;;;6166130;23;20163;-90
2023/12/03 00:57:19;;;;;;;13.47;6.37;;;;;;;;;;6167402;23;20172;-90
2023/12/03 01:00:24;;;;;;;12.13;5.90;;;;;;;;;;6167909;23;20172;-89
2023/12/03 01:03:29;;;;;;;12.60;6.60;;;;;;;;;;6167522;23;20184;-92
2023/12/03 01:06:36;;;;;;;15.63;7.80;;;;;;;;;;6167824;23;20752;-92
2023/12/03 01:09:42;;;;;;;12.43;6.53;;;;;;;;;;6168496;23;20224;-90
2023/12/03 01:12:47;;;;;;;15.17;7.10;;;;;;;;;;6166742;23;20172;-91
2023/12/03 01:15:52;;;;;;;14.47;6.90;;;;;;;;;;6166013;23;20172;-87
2023/12/03 01:18:58;;;;;;;13.13;6.20;;;;;;;;;;6166785;23;20169;-89
2023/12/03 01:22:05;;;;;;;11.53;5.80;;;;;;;;;;6167128;23;20651;-88
2023/12/03 01:25:12;;;;;;;13.43;6.40;;;;;;;;;;6168768;23;20247;-90
2023/12/03 01:28:20;;;;;;;10.70;6.13;;;;;;;;;;6166730;23;20208;-88
2023/12/03 01:31:25;;;;;;;13.10;7.17;;;;;;;;;;6166358;23;20196;-87
2023/12/03 01:34:31;;;;;;;10.83;5.60;;;;;;;;;;6167009;23;20169;-87
2023/12/03 01:37:37;;;;;;;8.70;5.00;;;;;;;;;;6167879;23;20249;-91
2023/12/03 01:40:52;;;;;;;12.60;5.93;;;;;;;;;;6166689;23;20168;-88
2023/12/03 01:43:57;;;;;;;11.97;6.10;;;;;;;;;;6167098;23;20180;-89
2023/12/03 01:47:02;;;;;;;10.90;5.87;;;;;;;;;;6167834;23;20164;-89
2023/12/03 01:50:08;;;;;;;9.07;5.20;;;;;;;;;;6166677;23;20176;-89
2023/12/03 01:53:16;;;;;;;10.63;6.00;;;;;;;;;;6166211;23;20173;-88
2023/12/03 01:56:21;;;;;;;11.23;6.33;;;;;;;;;;6167610;23;20177;-90
2023/12/03 01:59:27;;;;;;;10.40;5.63;;;;;;;;;;6168759;23;20341;-90
2023/12/03 02:02:32;;;;;;;8.77;5.37;;;;;;;;;;6167575;23;20215;-88
2023/12/03 02:05:37;;;;;;;11.47;6.10;;;;;;;;;;6167951;23;20160;-89
2023/12/03 02:08:44;;;;;;;11.13;5.53;;;;;;;;;;6167305;23;20161;-88
2023/12/03 02:11:49;;;;;;;12.07;6.70;;;;;;;;;;6168547;23;20218;-88
2023/12/03 02:14:54;;;;;;;17.93;7.67;;;;;;;;;;6167025;23;20612;-88
2023/12/03 02:17:59;;;;;;;13.70;5.80;;;;;;;;;;6168981;23;20180;-89
2023/12/03 02:21:04;;;;;;;12.97;6.40;;;;;;;;;;6166381;23;20195;-87
2023/12/03 02:24:11;;;;;;;14.50;5.90;;;;;;;;;;6167094;23;20176;-89
2023/12/03 02:27:16;;;;;;;16.73;7.30;;;;;;;;;;6166082;23;20172;-91
2023/12/03 02:30:21;;;;;;;14.47;7.27;;;;;;;;;;6166791;23;20240;-86
2023/12/03 02:33:28;;;;;;;14.50;7.43;;;;;;;;;;6168446;23;20220;-89
2023/12/03 02:36:33;;;;;;;11.80;6.57;;;;;;;;;;6166951;23;20478;-88
2023/12/03 02:39:39;;;;;;;10.20;5.53;;;;;;;;;;6166730;23;20247;-89
2023/12/03 02:42:44;;;;;;;11.00;6.00;;;;;;;;;;6165674;23;20220;-88
2023/12/03 02:45:49;;;;;;;14.60;6.50;;;;;;;;;;6166201;23;20280;-87
2023/12/03 02:48:55;;;;;;;16.00;7.80;;;;;;;;;;6166897;23;20705;-89
2023/12/03 02:52:00;;;;;;;15.30;6.80;;;;;;;;;;6165627;23;20239;-88
2023/12/03 02:55:08;;;;;;;11.30;6.40;;;;;;;;;;6165038;23;20293;-90
2023/12/03 02:58:13;;;;;;;13.27;7.73;;;;;;;;;;6167696;23;20214;-91
2023/12/03 03:01:18;;;;;;;14.60;7.43;;;;;;;;;;6168199;23;20667;-86
2023/12/03 03:04:23;;;;;;;12.00;6.93;;;;;;;;;;6167951;23;20173;-88
2023/12/03 03:07:29;;;;;;;13.50;7.00;;;;;;;;;;6169344;23;20639;-88
2023/12/03 03:10:35;;;;;;;13.93;7.23;;;;;;;;;;6167591;23;20272;-87
2023/12/03 03:13:40;;;;;;;13.10;6.93;;;;;;;;;;6166911;23;20185;-89
2023/12/03 03:16:45;;;;;;;16.53;7.37;;;;;;;;;;6166080;23;20180;-88
2023/12/03 03:19:50;;;;;;;12.03;6.83;;;;;;;;;;6165108;23;20164;-87
2023/12/03 03:22:55;;;;;;;15.20;7.40;;;;;;;;;;6165952;23;20188;-90
2023/12/03 03:26:02;;;;;;;18.23;7.87;;;;;;;;;;6165513;23;20168;-90
2023/12/03 03:29:06;;;;;;;15.70;7.60;;;;;;;;;;6166328;23;20506;-88
2023/12/03 03:32:11;;;;;;;14.80;7.17;;;;;;;;;;6164650;23;20172;-90
2023/12/03 03:35:16;;;;;;;13.57;6.40;;;;;;;;;;6164697;23;20172;-89
2023/12/03 03:38:21;;;;;;;14.80;7.67;;;;;;;;;;6165138;23;20188;-90
2023/12/03 03:41:28;;;;;;;15.30;7.73;;;;;;;;;;6162556;23;20212;-91
2023/12/03 03:44:34;;;;;;;15.90;7.83;;;;;;;;;;6164489;23;20160;-91
2023/12/03 03:47:39;;;;;;;19.77;8.57;;;;;;;;;;6164241;23;20172;-92
2023/12/03 03:50:44;;;;;;;15.27;7.83;;;;;;;;;;6165838;23;20168;-89
2023/12/03 03:53:49;;;;;;;19.00;8.20;;;;;;;;;;6166161;23;20597;-90
2023/12/03 03:56:55;;;;;;;14.60;7.10;;;;;;;;;;6165596;23;20204;-91
2023/12/03 04:00:00;;;;;;;12.10;6.57;;;;;;;;;;6165669;23;20210;-91
2023/12/03 04:03:05;;;;;;;14.30;7.00;;;;;;;;;;6165189;23;20192;-90
2023/12/03 04:06:12;;;;;;;12.57;6.43;;;;;;;;;;6166847;23;20228;-91
2023/12/03 04:09:17;;;;;;;11.27;6.00;;;;;;;;;;6166251;23;20169;-90
2023/12/03 04:12:24;;;;;;;14.27;6.10;;;;;;;;;;6165685;23;20173;-88
2023/12/03 04:15:29;;;;;;;13.20;5.53;;;;;;;;;;6165465;23;20196;-93
2023/12/03 04:18:34;;;;;;;10.73;5.77;;;;;;;;;;6164832;23;20220;-90
2023/12/03 04:21:39;;;;;;;12.63;6.37;;;;;;;;;;6166398;23;20660;-91
2023/12/03 04:24:46;;;;;;;12.77;5.67;;;;;;;;;;6166015;23;20180;-90
2023/12/03 04:27:53;;;;;;;10.40;5.57;;;;;;;;;;6166661;23;20184;-91
2023/12/03 04:30:58;;;;;;;8.20;4.90;;;;;;;;;;6164902;23;20258;-89
2023/12/03 04:34:03;;;;;;;10.13;5.00;;;;;;;;;;6165832;23;20177;-90
2023/12/03 04:37:08;;;;;;;11.07;5.17;;;;;;;;;;6166500;23;20220;-91
2023/12/03 04:40:14;;;;;;;9.57;5.00;;;;;;;;;;6166052;23;20165;-89
2023/12/03 04:43:20;;;;;;;13.23;5.40;;;;;;;;;;6166233;23;20196;-91
2023/12/03 04:46:25;;;;;;;9.00;4.73;;;;;;;;;;6165597;23;20188;-91
2023/12/03 04:49:30;;;;;;;12.87;5.57;;;;;;;;;;6165673;23;20216;-89
2023/12/03 04:52:35;;;;;;;8.40;4.27;;;;;;;;;;6166871;23;20188;-92
2023/12/03 04:55:40;;;;;;;9.53;5.00;;;;;;;;;;6165935;23;20180;-88
2023/12/03 04:58:47;;;;;;;11.73;4.90;;;;;;;;;;6166881;23;20201;-91
2023/12/03 05:01:52;;;;;;;10.30;4.70;;;;;;;;;;6166887;23;20243;-92
2023/12/03 05:04:57;;;;;;;8.43;4.50;;;;;;;;;;6166011;23;20195;-90
2023/12/03 05:08:02;;;;;;;10.03;4.77;;;;;;;;;;6166020;23;20228;-89
2023/12/03 05:11:08;;;;;;;8.50;4.63;;;;;;;;;;6165732;23;20165;-90
2023/12/03 05:14:14;;;;;;;11.43;5.17;;;;;;;;;;6165100;23;20275;-91
2023/12/03 05:17:20;;;;;;;10.10;5.10;;;;;;;;;;6165300;23;20172;-90
2023/12/03 05:20:25;;;;;;;8.93;5.00;;;;;;;;;;6164768;23;20169;-89
2023/12/03 05:23:31;;;;;;;10.00;5.27;;;;;;;;;;6164477;23;20180;-90
2023/12/03 05:26:35;;;;;;;9.10;4.80;;;;;;;;;;6164647;23;20168;-90
2023/12/03 05:29:44;;;;;;;12.10;5.67;;;;;;;;;;6164975;23;20149;-91
2023/12/03 05:32:50;;;;;;;10.60;5.50;;;;;;;;;;6164310;23;20209;-88
2023/12/03 05:35:54;;;;;;;10.43;5.67;;;;;;;;;;6165337;23;20176;-92
2023/12/03 05:39:00;;;;;;;10.13;5.30;;;;;;;;;;6166673;23;20188;-89
2023/12/03 05:42:05;;;;;;;9.20;5.13;;;;;;;;;;6165946;23;20208;-89
2023/12/03 05:45:12;;;;;;;11.67;5.60;;;;;;;;;;6165923;23;20168;-89
2023/12/03 05:48:17;;;;;;;10.07;5.57;;;;;;;;;;6165673;23;20251;-87
2023/12/03 05:51:23;;;;;;;10.73;5.30;;;;;;;;;;6163820;23;20172;-91
2023/12/03 05:54:28;;;;;;;10.43;5.93;;;;;;;;;;6164908;23;20164;-89
2023/12/03 05:57:33;;;;;;;9.23;4.77;;;;;;;;;;6165565;23;20227;-91
2023/12/03 06:00:39;;;;;;;10.50;5.23;;;;;;;;;;6164684;23;20196;-90
2023/12/03 06:03:45;;;;;;;11.33;5.30;;;;;;;;;;6162361;23;20275;-89
2023/12/03 06:06:50;;;;;;;11.03;5.93;;;;;;;;;;6163403;23;20176;-89
2023/12/03 06:09:55;;;;;;;13.67;6.60;;;;;;;;;;6164036;23;20168;-89
2023/12/03 06:13:00;;;;;;;11.90;5.83;;;;;;;;;;6165824;23;20248;-91
2023/12/03 06:16:07;;;;;;;12.77;6.13;;;;;;;;;;6167182;23;20176;-91
2023/12/03 06:19:12;;;;;;;10.53;5.90;;;;;;;;;;6165459;23;20244;-90
2023/12/03 06:22:18;;;;;;;11.20;5.83;;;;;;;;;;6167610;23;20209;-88
2023/12/03 06:25:23;;;;;;;11.70;6.27;;;;;;;;;;6167665;23;20164;-91
2023/12/03 06:28:28;;;;;;;13.33;6.80;;;;;;;;;;6166201;23;20268;-88
2023/12/03 06:31:34;;;;;;;12.20;6.33;;;;;;;;;;6166635;23;20164;-88
2023/12/03 06:34:39;;;;;;;14.27;6.83;;;;;;;;;;6166253;23;20180;-89
2023/12/03 06:37:45;;;;;;;14.50;7.50;;;;;;;;;;6166394;23;20315;-90
2023/12/03 06:40:50;;;;;;;14.23;7.00;;;;;;;;;;6165631;23;20169;-88
2023/12/03 06:43:56;;;;;;;15.40;7.20;;;;;;;;;;6167293;23;20671;-89
2023/12/03 06:47:02;;;;;;;13.17;6.87;;;;;;;;;;6167137;23;20169;-89
2023/12/03 06:50:07;;;;;;;13.90;7.20;;;;;;;;;;6167064;23;20281;-87
2023/12/03 06:53:12;;;;;;;12.67;6.67;;;;;;;;;;6169264;23;20192;-89
2023/12/03 06:56:17;;;;;;;13.53;6.83;;;;;;;;;;6167606;23;20168;-89
2023/12/03 06:59:31;;;;;;;13.53;6.73;;;;;;;;;;6166747;23;20164;-90
2023/12/03 07:02:38;;;;;;;17.00;8.53;;;;;;;;;;6166825;23;20208;-89
2023/12/03 07:05:42;;;;;;;14.53;7.00;;;;;;;;;;6166146;23;20257;-87
2023/12/03 07:08:47;;;;;;;22.63;9.50;;;;;;;;;;6165400;23;20148;-90
2023/12/03 07:11:53;;;;;;;18.17;9.07;;;;;;;;;;6166203;23;20165;-90
2023/12/03 07:15:02;;;;;;;16.27;8.70;;;;;;;;;;6170563;23;20172;-89
2023/12/03 07:18:09;;;;;;;16.70;8.30;;;;;;;;;;6172341;23;20168;-89
2023/12/03 07:21:14;;;;;;;24.60;9.53;;;;;;;;;;6164417;23;20172;-88
2023/12/03 07:24:20;;;;;;;18.73;8.70;;;;;;;;;;6164393;23;20298;-87
2023/12/03 07:27:25;;;;;;;19.20;9.13;;;;;;;;;;6166620;23;20161;-89
2023/12/03 07:30:30;;;;;;;17.27;8.63;;;;;;;;;;6169504;23;20176;-89
2023/12/03 07:33:36;;;;;;;20.27;8.87;;;;;;;;;;6168012;23;20226;-88
2023/12/03 07:36:41;;;;;;;18.97;9.77;;;;;;;;;;6170047;23;20165;-89
2023/12/03 07:39:47;;;;;;;21.07;10.43;;;;;;;;;;6172356;23;20189;-90
2023/12/03 07:42:53;;;;;;;20.97;9.60;;;;;;;;;;6169501;23;20491;-88
2023/12/03 07:45:58;;;;;;;25.03;10.53;;;;;;;;;;6171053;23;20156;-90
2023/12/03 07:49:05;;;;;;;20.10;9.33;;;;;;;;;;6171729;23;20165;-91
2023/12/03 07:52:11;;;;;;;18.30;9.43;;;;;;;;;;6170200;23;20223;-90
2023/12/03 07:55:17;;;;;;;19.57;9.90;;;;;;;;;;6173565;23;20145;-90
2023/12/03 07:58:22;;;;;;;17.87;9.47;;;;;;;;;;6172132;23;20168;-89
2023/12/03 08:01:27;;;;;;;17.67;9.00;;;;;;;;;;6166787;23;20195;-88
2023/12/03 08:04:33;;;;;;;23.40;9.27;;;;;;;;;;6166873;23;20204;-89
2023/12/03 08:07:39;;;;;;;19.90;10.43;;;;;;;;;;6169890;23;20193;-89
2023/12/03 08:10:44;;;;;;;20.00;10.20;;;;;;;;;;6172758;23;20172;-90
2023/12/03 08:13:51;;;;;;;18.87;9.40;;;;;;;;;;6173767;23;20156;-90
2023/12/03 08:16:56;;;;;;;22.97;10.20;;;;;;;;;;6174557;23;20176;-90
2023/12/03 08:20:05;;;;;;;27.63;11.40;;;;;;;;;;6171766;23;20212;-90
2023/12/03 08:23:10;;;;;;;24.47;10.63;;;;;;;;;;6170733;23;20196;-89
2023/12/03 08:26:15;;;;;;;19.63;9.87;;;;;;;;;;6173805;23;20164;-90
2023/12/03 08:29:20;;;;;;;19.93;9.63;;;;;;;;;;6170152;23;20176;-89
2023/12/03 08:32:26;;;;;;;17.70;9.77;;;;;;;;;;6170960;23;20238;-87
2023/12/03 08:35:33;;;;;;;19.07;9.83;;;;;;;;;;6172814;23;20220;-89
2023/12/03 08:38:38;;;;;;;17.53;9.00;;;;;;;;;;6170614;23;20171;-89
2023/12/03 08:41:43;;;;;;;19.13;10.07;;;;;;;;;;6169063;23;20164;-90
2023/12/03 08:44:48;;;;;;;18.53;9.30;;;;;;;;;;6166236;23;20222;-88
2023/12/03 08:47:54;;;;;;;20.07;10.07;;;;;;;;;;6167918;23;20168;-90
2023/12/03 08:51:00;;;;;;;25.47;11.27;;;;;;;;;;6167052;23;20219;-90
2023/12/03 08:54:05;;;;;;;28.07;10.90;;;;;;;;;;6165403;23;20172;-90
2023/12/03 08:57:10;;;;;;;22.70;10.17;;;;;;;;;;6166653;23;20156;-88
2023/12/03 09:00:16;;;;;;;21.83;10.13;;;;;;;;;;6167814;23;20207;-90
2023/12/03 09:03:21;;;;;;;28.37;12.83;;;;;;;;;;6167096;23;20299;-89
2023/12/03 09:06:27;;;;;;;24.43;10.80;;;;;;;;;;6168236;23;20237;-89
2023/12/03 09:09:32;;;;;;;23.33;10.63;;;;;;;;;;6167817;23;20172;-90
2023/12/03 09:12:39;;;;;;;24.93;10.77;;;;;;;;;;6168365;23;20164;-90
2023/12/03 09:15:44;;;;;;;21.30;10.10;;;;;;;;;;6167136;23;20176;-90
2023/12/03 09:18:49;;;;;;;20.17;9.37;;;;;;;;;;6166991;23;20188;-91
2023/12/03 09:21:55;;;;;;;22.73;10.03;;;;;;;;;;6166385;23;20173;-89
2023/12/03 09:25:00;;;;;;;23.80;9.93;;;;;;;;;;6166354;23;20160;-91
2023/12/03 09:28:05;;;;;;;21.97;10.70;;;;;;;;;;6166529;23;20161;-91
2023/12/03 09:31:10;;;;;;;20.40;10.20;;;;;;;;;;6168062;23;20180;-90
2023/12/03 09:34:15;;;;;;;21.87;10.63;;;;;;;;;;6165866;23;20256;-89
2023/12/03 09:37:22;;;;;;;24.87;11.83;;;;;;;;;;6163111;23;20177;-88
2023/12/03 09:40:27;;;;;;;18.47;9.67;;;;;;;;;;6164207;23;20624;-87
2023/12/03 09:43:33;;;;;;;21.50;10.00;;;;;;;;;;6165001;23;20192;-89
2023/12/03 09:46:39;;;;;;;20.77;9.67;;;;;;;;;;6166744;23;20172;-88
2023/12/03 09:49:48;;;;;;;19.80;9.57;;;;;;;;;;6165929;23;20164;-89
2023/12/03 09:52:54;;;;;;;24.10;9.77;;;;;;;;;;6166125;23;20172;-88
2023/12/03 09:56:00;;;;;;;17.93;9.03;;;;;;;;;;6166060;23;20177;-88
2023/12/03 09:59:07;;;;;;;19.20;8.83;;;;;;;;;;6148489;23;20185;-89
2023/12/03 10:02:14;;;;;;;21.93;10.33;;;;;;;;;;6167372;23;20192;-91
2023/12/03 10:05:19;;;;;;;20.23;9.17;;;;;;;;;;6165804;23;20616;-88
2023/12/03 10:08:25;;;;;;;21.03;9.93;;;;;;;;;;6167300;23;20189;-88
2023/12/03 10:11:33;;;;;;;18.40;9.23;;;;;;;;;;6167680;23;20615;-87
2023/12/03 10:14:38;;;;;;;19.13;9.13;;;;;;;;;;6168471;23;20611;-88
2023/12/03 10:17:45;;;;;;;19.13;9.60;;;;;;;;;;6169889;23;20176;-90
2023/12/03 10:20:51;;;;;;;19.10;9.40;;;;;;;;;;6171745;23;20767;-91
2023/12/03 10:24:03;;;;;;;20.43;9.40;;;;;;;;;;6175062;23;20196;-90
2023/12/03 10:27:14;;;;;;;21.97;10.67;;;;;;;;;;6173509;23;20168;-90
2023/12/03 10:30:20;;;;;;;20.97;10.63;;;;;;;;;;6167963;23;20156;-87
2023/12/03 10:33:25;;;;;;;19.60;9.47;;;;;;;;;;6169197;23;20490;-89
2023/12/03 10:36:34;;;;;;;19.00;9.00;;;;;;;;;;6167002;23;20180;-88
2023/12/03 10:39:41;;;;;;;20.50;9.80;;;;;;;;;;6172792;23;20173;-88
2023/12/03 10:42:46;;;;;;;20.20;9.40;;;;;;;;;;6171236;23;20165;-87
2023/12/03 10:45:54;;;;;;;20.43;9.87;;;;;;;;;;6168940;23;20161;-88
2023/12/03 10:48:59;;;;;;;18.77;9.57;;;;;;;;;;6170445;23;20156;-88
2023/12/03 10:52:05;;;;;;;25.33;10.67;;;;;;;;;;6168579;23;20538;-90
2023/12/03 10:55:11;;;;;;;20.73;9.77;;;;;;;;;;6167248;23;20249;-89
2023/12/03 10:58:19;;;;;;;23.67;10.67;;;;;;;;;;6166983;23;20209;-88
2023/12/03 11:01:25;;;;;;;20.27;10.27;;;;;;;;;;6164818;23;20546;-89
2023/12/03 11:04:38;;;;;;;26.07;11.90;;;;;;;;;;6166813;23;20204;-91
2023/12/03 11:07:44;;;;;;;21.27;10.30;;;;;;;;;;6164333;23;20173;-90
2023/12/03 11:10:50;;;;;;;24.60;11.07;;;;;;;;;;6164950;23;20165;-91
2023/12/03 11:13:56;;;;;;;25.87;10.43;;;;;;;;;;6165480;23;20243;-91
2023/12/03 11:17:08;;;;;;;21.67;10.77;;;;;;;;;;6165752;23;20181;-89
2023/12/03 11:23:41;;;;;;;22.40;10.43;;;;;;;;;;6165739;23;20208;-90
2023/12/03 11:26:52;;;;;;;20.57;9.97;;;;;;;;;;6168177;23;20273;-89
2023/12/03 11:30:04;;;;;;;18.63;9.20;;;;;;;;;;6169323;23;20222;-90
2023/12/03 11:33:09;;;;;;;19.63;9.30;;;;;;;;;;6169417;23;20177;-90
2023/12/03 11:36:14;;;;;;;22.10;10.87;;;;;;;;;;6170494;23;20176;-90
2023/12/03 11:39:20;;;;;;;17.63;9.03;;;;;;;;;;6170588;23;20184;-87
2023/12/03 11:42:28;;;;;;;17.83;8.97;;;;;;;;;;6170351;23;20156;-89
2023/12/03 11:45:33;;;;;;;24.63;11.30;;;;;;;;;;6169036;23;20291;-90
2023/12/03 11:48:41;;;;;;;22.17;9.50;;;;;;;;;;6168725;23;20184;-89
2023/12/03 11:51:47;;;;;;;30.50;11.83;;;;;;;;;;6168911;23;20168;-91
2023/12/03 11:54:56;;;;;;;22.97;9.40;;;;;;;;;;6165844;23;20173;-89
2023/12/03 11:58:05;;;;;;;19.50;9.67;;;;;;;;;;6169575;23;20169;-89
2023/12/03 12:01:11;;;;;;;19.33;9.50;;;;;;;;;;6168118;23;20304;-91
2023/12/03 12:04:24;;;;;;;30.67;11.20;;;;;;;;;;6170079;23;20196;-89
2023/12/03 12:07:29;;;;;;;19.80;9.33;;;;;;;;;;6171027;23;20252;-89
2023/12/03 12:10:35;;;;;;;24.37;10.00;;;;;;;;;;6170550;23;20167;-90
2023/12/03 12:13:45;;;;;;;19.10;8.77;;;;;;;;;;6170678;23;20165;-89
2023/12/03 12:16:50;;;;;;;17.40;7.33;;;;;;;;;;6169250;23;20167;-90
2023/12/03 12:19:58;;;;;;;19.30;8.70;;;;;;;;;;6168731;23;20172;-91
2023/12/03 12:23:03;;;;;;;16.57;7.47;;;;;;;;;;6169541;23;20190;-93
2023/12/03 12:26:10;;;;;;;16.90;8.17;;;;;;;;;;6168623;23;20168;-90
2023/12/03 12:29:17;;;;;;;20.53;9.83;;;;;;;;;;6171576;23;20188;-91
2023/12/03 12:32:22;;;;;;;18.03;8.93;;;;;;;;;;6169770;23;20173;-91
2023/12/03 12:35:28;;;;;;;19.63;9.27;;;;;;;;;;6170467;23;20176;-89
2023/12/03 12:38:41;;;;;;;18.93;8.47;;;;;;;;;;6169218;23;20173;-89
2023/12/03 12:41:46;;;;;;;22.50;8.50;;;;;;;;;;6167706;23;20179;-89
2023/12/03 12:44:53;;;;;;;22.13;9.30;;;;;;;;;;6169450;23;20188;-91
2023/12/03 12:47:59;;;;;;;18.73;8.27;;;;;;;;;;6169655;23;20168;-88
2023/12/03 12:51:05;;;;;;;20.17;9.73;;;;;;;;;;6168682;23;20231;-90
2023/12/03 12:54:11;;;;;;;19.93;7.57;;;;;;;;;;6171003;23;20517;-89
2023/12/03 12:57:18;;;;;;;24.97;9.60;;;;;;;;;;6170907;23;20212;-89
2023/12/03 13:00:24;;;;;;;17.60;8.40;;;;;;;;;;6171341;23;20172;-91
2023/12/03 13:03:29;;;;;;;28.30;9.93;;;;;;;;;;6171798;23;20169;-90
2023/12/03 13:06:36;;;;;;;26.83;10.10;;;;;;;;;;6171930;23;20216;-91
2023/12/03 13:09:41;;;;;;;20.30;9.57;;;;;;;;;;6171316;23;20172;-89
2023/12/03 13:12:47;;;;;;;45.03;16.33;;;;;;;;;;6168595;23;20172;-90
2023/12/03 13:15:56;;;;;;;32.27;12.83;;;;;;;;;;6170433;23;20160;-92
2023/12/03 13:19:02;;;;;;;26.50;11.93;;;;;;;;;;6172491;23;20164;-89
2023/12/03 13:22:08;;;;;;;27.47;11.20;;;;;;;;;;6170948;23;20165;-92
2023/12/03 13:25:14;;;;;;;30.50;11.67;;;;;;;;;;6172503;23;20184;-91
2023/12/03 13:28:19;;;;;;;24.03;9.73;;;;;;;;;;6170475;23;20169;-90
2023/12/03 13:31:32;;;;;;;25.70;10.13;;;;;;;;;;6172622;23;20157;-89
2023/12/03 13:34:37;;;;;;;29.17;11.40;;;;;;;;;;6172345;23;20173;-90
2023/12/03 13:37:43;;;;;;;22.47;9.23;;;;;;;;;;6175205;23;20189;-90
2023/12/03 23:01:40;;;;;;;36.10;14.20;;;;;;;;;;6147778;23;20212;-90
2023/12/03 23:04:46;;;;;;;32.97;13.47;;;;;;;;;;6194890;23;20312;-89
2023/12/03 23:07:52;;;;;;;32.60;13.43;;;;;;;;;;6202375;23;20168;-88
2023/12/03 23:10:59;;;;;;;28.93;12.43;;;;;;;;;;6201971;23;20249;-90
2023/12/03 23:14:05;;;;;;;31.93;13.00;;;;;;;;;;6202211;23;20169;-91
2023/12/03 23:17:12;;;;;;;33.97;13.10;;;;;;;;;;6204148;23;20164;-90
2023/12/03 23:20:18;;;;;;;27.77;12.17;;;;;;;;;;6205982;23;20196;-92
2023/12/03 23:23:24;;;;;;;33.07;12.43;;;;;;;;;;6202076;23;20156;-90
2023/12/03 23:26:30;;;;;;;33.07;12.30;;;;;;;;;;6200549;23;20190;-91
2023/12/03 23:29:37;;;;;;;33.97;14.47;;;;;;;;;;6201924;23;20154;-92
2023/12/03 23:32:48;;;;;;;33.97;13.70;;;;;;;;;;6202263;23;20172;-92
2023/12/03 23:35:54;;;;;;;30.87;12.60;;;;;;;;;;6203024;23;20168;-91
2023/12/03 23:38:59;;;;;;;29.03;12.87;;;;;;;;;;6202998;23;20167;-92
2023/12/03 23:42:05;;;;;;;31.93;12.50;;;;;;;;;;6201492;23;20156;-91
2023/12/03 23:45:11;;;;;;;28.07;12.40;;;;;;;;;;6202061;23;20203;-89
2023/12/03 23:48:17;;;;;;;35.23;13.60;;;;;;;;;;6203356;23;20171;-91
2023/12/03 23:51:23;;;;;;;30.50;12.03;;;;;;;;;;6203181;23;20494;-92
2023/12/03 23:54:28;;;;;;;33.23;13.43;;;;;;;;;;6205026;23;20175;-92
2023/12/03 23:57:35;;;;;;;34.80;12.60;;;;;;;;;;6201870;23;20237;-91
